sensor_id;sensor_type;location;lat;lon;timestamp;P1;durP1;ratioP1;P2;durP2;ratioP2
17032;SDS011;63208;52.178;21.016;2022-09-29T00:00:48;14.93;;;9.93;;
17032;SDS011;63208;52.178;21.016;2022-09-29T00:03:16;14.33;;;9.40;;
17032;SDS011;63208;52.178;21.016;2022-09-29T00:05:47;13.20;;;9.10;;
17032;SDS011;63208;52.178;21.016;2022-09-29T00:08:15;11.63;;;8.80;;
17032;SDS011;63208;52.178;21.016;2022-09-29T00:10:44;13.10;;;9.07;;
17032;SDS011;63208;52.178;21.016;2022-09-29T00:13:12;13.50;;;8.87;;
17032;SDS011;63208;52.178;21.016;2022-09-29T00:15:39;10.23;;;7.97;;
17032;SDS011;63208;52.178;21.016;2022-09-29T00:18:07;9.77;;;8.00;;
17032;SDS011;63208;52.178;21.016;2022-09-29T00:20:35;9.20;;;7.67;;
17032;SDS011;63208;52.178;21.016;2022-09-29T00:23:03;9.60;;;8.33;;
17032;SDS011;63208;52.178;21.016;2022-09-29T00:25:30;11.63;;;8.43;;
17032;SDS011;63208;52.178;21.016;2022-09-29T00:27:58;9.37;;;7.90;;
17032;SDS011;63208;52.178;21.016;2022-09-29T00:30:26;10.13;;;8.00;;
17032;SDS011;63208;52.178;21.016;2022-09-29T00:32:53;9.57;;;7.23;;
17032;SDS011;63208;52.178;21.016;2022-09-29T00:35:20;9.47;;;8.33;;
17032;SDS011;63208;52.178;21.016;2022-09-29T00:37:47;9.60;;;7.40;;
17032;SDS011;63208;52.178;21.016;2022-09-29T00:40:14;10.70;;;7.63;;
17032;SDS011;63208;52.178;21.016;2022-09-29T00:42:41;9.13;;;7.40;;
17032;SDS011;63208;52.178;21.016;2022-09-29T00:45:14;10.77;;;7.30;;
17032;SDS011;63208;52.178;21.016;2022-09-29T00:47:44;8.07;;;6.83;;
17032;SDS011;63208;52.178;21.016;2022-09-29T00:50:18;8.73;;;7.53;;
17032;SDS011;63208;52.178;21.016;2022-09-29T00:52:52;8.83;;;7.40;;
17032;SDS011;63208;52.178;21.016;2022-09-29T00:55:24;8.73;;;7.13;;
17032;SDS011;63208;52.178;21.016;2022-09-29T00:57:54;8.37;;;7.53;;
17032;SDS011;63208;52.178;21.016;2022-09-29T01:00:25;9.20;;;7.37;;
17032;SDS011;63208;52.178;21.016;2022-09-29T01:02:53;8.23;;;7.40;;
17032;SDS011;63208;52.178;21.016;2022-09-29T01:05:27;8.87;;;7.47;;
17032;SDS011;63208;52.178;21.016;2022-09-29T01:07:59;7.60;;;6.80;;
17032;SDS011;63208;52.178;21.016;2022-09-29T01:10:31;9.63;;;7.37;;
17032;SDS011;63208;52.178;21.016;2022-09-29T01:13:00;7.93;;;7.10;;
17032;SDS011;63208;52.178;21.016;2022-09-29T01:15:29;10.37;;;7.90;;
17032;SDS011;63208;52.178;21.016;2022-09-29T01:17:57;8.07;;;7.27;;
17032;SDS011;63208;52.178;21.016;2022-09-29T01:20:24;9.70;;;7.40;;
17032;SDS011;63208;52.178;21.016;2022-09-29T01:26:02;11.80;;;7.13;;
17032;SDS011;63208;52.178;21.016;2022-09-29T01:28:50;8.53;;;7.57;;
17032;SDS011;63208;52.178;21.016;2022-09-29T01:31:36;8.00;;;6.93;;
17032;SDS011;63208;52.178;21.016;2022-09-29T01:34:12;8.23;;;7.27;;
17032;SDS011;63208;52.178;21.016;2022-09-29T01:36:52;9.23;;;7.03;;
17032;SDS011;63208;52.178;21.016;2022-09-29T01:39:27;9.03;;;7.17;;
17032;SDS011;63208;52.178;21.016;2022-09-29T01:41:58;10.13;;;7.80;;
17032;SDS011;63208;52.178;21.016;2022-09-29T01:44:30;11.07;;;7.97;;
17032;SDS011;63208;52.178;21.016;2022-09-29T01:47:04;11.10;;;7.80;;
17032;SDS011;63208;52.178;21.016;2022-09-29T01:49:35;8.80;;;7.70;;
17032;SDS011;63208;52.178;21.016;2022-09-29T01:52:07;9.97;;;7.87;;
17032;SDS011;63208;52.178;21.016;2022-09-29T01:54:40;9.00;;;7.27;;
17032;SDS011;63208;52.178;21.016;2022-09-29T01:57:12;10.53;;;8.30;;
17032;SDS011;63208;52.178;21.016;2022-09-29T01:59:44;14.30;;;8.40;;
17032;SDS011;63208;52.178;21.016;2022-09-29T02:02:16;9.77;;;8.37;;
17032;SDS011;63208;52.178;21.016;2022-09-29T02:04:52;10.23;;;7.87;;
17032;SDS011;63208;52.178;21.016;2022-09-29T02:07:24;11.83;;;7.93;;
17032;SDS011;63208;52.178;21.016;2022-09-29T02:09:57;10.33;;;8.30;;
17032;SDS011;63208;52.178;21.016;2022-09-29T02:12:29;11.00;;;8.30;;
17032;SDS011;63208;52.178;21.016;2022-09-29T02:15:00;10.43;;;8.23;;
17032;SDS011;63208;52.178;21.016;2022-09-29T02:17:33;12.97;;;9.20;;
17032;SDS011;63208;52.178;21.016;2022-09-29T02:20:04;11.97;;;8.53;;
17032;SDS011;63208;52.178;21.016;2022-09-29T02:22:33;10.97;;;8.53;;
17032;SDS011;63208;52.178;21.016;2022-09-29T02:25:00;11.83;;;8.93;;
17032;SDS011;63208;52.178;21.016;2022-09-29T02:27:29;12.27;;;9.03;;
17032;SDS011;63208;52.178;21.016;2022-09-29T02:29:58;13.67;;;9.23;;
17032;SDS011;63208;52.178;21.016;2022-09-29T02:32:25;10.97;;;9.10;;
17032;SDS011;63208;52.178;21.016;2022-09-29T02:34:54;11.90;;;8.53;;
17032;SDS011;63208;52.178;21.016;2022-09-29T02:37:27;11.77;;;8.43;;
17032;SDS011;63208;52.178;21.016;2022-09-29T02:40:09;12.37;;;8.70;;
17032;SDS011;63208;52.178;21.016;2022-09-29T02:42:50;10.50;;;8.53;;
17032;SDS011;63208;52.178;21.016;2022-09-29T02:45:29;11.70;;;8.60;;
17032;SDS011;63208;52.178;21.016;2022-09-29T02:48:07;10.13;;;7.90;;
17032;SDS011;63208;52.178;21.016;2022-09-29T02:51:04;11.63;;;8.80;;
17032;SDS011;63208;52.178;21.016;2022-09-29T02:53:42;8.83;;;7.70;;
17032;SDS011;63208;52.178;21.016;2022-09-29T02:56:19;10.83;;;8.17;;
17032;SDS011;63208;52.178;21.016;2022-09-29T02:58:55;12.33;;;8.30;;
17032;SDS011;63208;52.178;21.016;2022-09-29T03:01:24;12.37;;;8.57;;
17032;SDS011;63208;52.178;21.016;2022-09-29T03:03:51;9.77;;;8.07;;
17032;SDS011;63208;52.178;21.016;2022-09-29T03:06:19;12.03;;;8.40;;
17032;SDS011;63208;52.178;21.016;2022-09-29T03:08:46;11.90;;;8.73;;
17032;SDS011;63208;52.178;21.016;2022-09-29T03:11:13;10.43;;;7.67;;
17032;SDS011;63208;52.178;21.016;2022-09-29T03:13:40;10.50;;;8.00;;
17032;SDS011;63208;52.178;21.016;2022-09-29T03:16:07;12.23;;;7.87;;
17032;SDS011;63208;52.178;21.016;2022-09-29T03:18:34;8.00;;;6.10;;
17032;SDS011;63208;52.178;21.016;2022-09-29T03:21:01;8.53;;;6.50;;
17032;SDS011;63208;52.178;21.016;2022-09-29T03:23:29;9.30;;;6.67;;
17032;SDS011;63208;52.178;21.016;2022-09-29T03:25:56;14.30;;;8.83;;
17032;SDS011;63208;52.178;21.016;2022-09-29T03:28:23;10.33;;;7.00;;
17032;SDS011;63208;52.178;21.016;2022-09-29T03:30:50;12.73;;;9.03;;
17032;SDS011;63208;52.178;21.016;2022-09-29T03:33:19;10.60;;;7.93;;
17032;SDS011;63208;52.178;21.016;2022-09-29T03:35:46;12.53;;;8.40;;
17032;SDS011;63208;52.178;21.016;2022-09-29T03:38:13;11.73;;;9.37;;
17032;SDS011;63208;52.178;21.016;2022-09-29T03:40:42;11.00;;;7.40;;
17032;SDS011;63208;52.178;21.016;2022-09-29T03:43:09;11.83;;;9.20;;
17032;SDS011;63208;52.178;21.016;2022-09-29T03:45:36;13.50;;;9.80;;
17032;SDS011;63208;52.178;21.016;2022-09-29T03:48:03;13.07;;;10.13;;
17032;SDS011;63208;52.178;21.016;2022-09-29T03:50:30;13.30;;;10.20;;
17032;SDS011;63208;52.178;21.016;2022-09-29T03:52:57;13.13;;;10.40;;
17032;SDS011;63208;52.178;21.016;2022-09-29T03:55:24;14.80;;;10.83;;
17032;SDS011;63208;52.178;21.016;2022-09-29T03:57:52;15.13;;;11.70;;
17032;SDS011;63208;52.178;21.016;2022-09-29T04:00:19;13.77;;;11.57;;
17032;SDS011;63208;52.178;21.016;2022-09-29T04:02:46;14.87;;;11.50;;
17032;SDS011;63208;52.178;21.016;2022-09-29T04:05:13;13.70;;;10.73;;
17032;SDS011;63208;52.178;21.016;2022-09-29T04:07:41;13.67;;;11.13;;
17032;SDS011;63208;52.178;21.016;2022-09-29T04:10:08;16.83;;;11.80;;
17032;SDS011;63208;52.178;21.016;2022-09-29T04:12:35;16.30;;;12.53;;
17032;SDS011;63208;52.178;21.016;2022-09-29T04:15:04;15.33;;;11.93;;
17032;SDS011;63208;52.178;21.016;2022-09-29T04:17:31;15.50;;;12.20;;
17032;SDS011;63208;52.178;21.016;2022-09-29T04:19:59;14.80;;;11.87;;
17032;SDS011;63208;52.178;21.016;2022-09-29T04:22:26;16.83;;;12.00;;
17032;SDS011;63208;52.178;21.016;2022-09-29T04:24:53;17.03;;;11.87;;
17032;SDS011;63208;52.178;21.016;2022-09-29T04:27:20;15.80;;;12.20;;
17032;SDS011;63208;52.178;21.016;2022-09-29T04:29:48;14.83;;;11.30;;
17032;SDS011;63208;52.178;21.016;2022-09-29T04:32:17;16.93;;;12.07;;
17032;SDS011;63208;52.178;21.016;2022-09-29T04:34:44;16.73;;;12.20;;
17032;SDS011;63208;52.178;21.016;2022-09-29T04:37:12;15.93;;;11.50;;
17032;SDS011;63208;52.178;21.016;2022-09-29T04:39:39;14.43;;;11.30;;
17032;SDS011;63208;52.178;21.016;2022-09-29T04:42:06;14.13;;;11.53;;
17032;SDS011;63208;52.178;21.016;2022-09-29T04:44:33;15.60;;;11.70;;
17032;SDS011;63208;52.178;21.016;2022-09-29T04:47:00;14.07;;;10.73;;
17032;SDS011;63208;52.178;21.016;2022-09-29T04:49:28;13.60;;;10.53;;
17032;SDS011;63208;52.178;21.016;2022-09-29T04:51:55;13.03;;;10.17;;
17032;SDS011;63208;52.178;21.016;2022-09-29T04:54:22;14.80;;;10.63;;
17032;SDS011;63208;52.178;21.016;2022-09-29T04:56:49;14.23;;;10.70;;
17032;SDS011;63208;52.178;21.016;2022-09-29T04:59:16;16.07;;;11.67;;
17032;SDS011;63208;52.178;21.016;2022-09-29T05:01:43;14.17;;;10.73;;
17032;SDS011;63208;52.178;21.016;2022-09-29T05:04:10;15.47;;;11.10;;
17032;SDS011;63208;52.178;21.016;2022-09-29T05:06:39;14.40;;;10.20;;
17032;SDS011;63208;52.178;21.016;2022-09-29T05:09:06;15.23;;;10.60;;
17032;SDS011;63208;52.178;21.016;2022-09-29T05:11:33;15.10;;;11.13;;
17032;SDS011;63208;52.178;21.016;2022-09-29T05:14:00;16.57;;;11.10;;
17032;SDS011;63208;52.178;21.016;2022-09-29T05:16:28;16.87;;;11.00;;
17032;SDS011;63208;52.178;21.016;2022-09-29T05:18:54;16.23;;;11.67;;
17032;SDS011;63208;52.178;21.016;2022-09-29T05:21:21;16.57;;;11.07;;
17032;SDS011;63208;52.178;21.016;2022-09-29T05:23:50;16.47;;;10.97;;
17032;SDS011;63208;52.178;21.016;2022-09-29T05:26:17;18.33;;;11.37;;
17032;SDS011;63208;52.178;21.016;2022-09-29T05:28:45;18.03;;;11.87;;
17032;SDS011;63208;52.178;21.016;2022-09-29T05:31:13;16.73;;;10.87;;
17032;SDS011;63208;52.178;21.016;2022-09-29T05:33:40;16.43;;;10.70;;
17032;SDS011;63208;52.178;21.016;2022-09-29T05:36:08;16.00;;;10.27;;
17032;SDS011;63208;52.178;21.016;2022-09-29T05:38:36;15.17;;;10.87;;
17032;SDS011;63208;52.178;21.016;2022-09-29T05:41:06;17.30;;;11.13;;
17032;SDS011;63208;52.178;21.016;2022-09-29T05:43:34;17.33;;;10.97;;
17032;SDS011;63208;52.178;21.016;2022-09-29T05:46:01;16.23;;;10.27;;
17032;SDS011;63208;52.178;21.016;2022-09-29T05:48:29;15.30;;;10.27;;
17032;SDS011;63208;52.178;21.016;2022-09-29T05:50:56;16.53;;;11.10;;
17032;SDS011;63208;52.178;21.016;2022-09-29T05:53:24;16.73;;;10.57;;
17032;SDS011;63208;52.178;21.016;2022-09-29T05:55:51;15.57;;;10.13;;
17032;SDS011;63208;52.178;21.016;2022-09-29T05:58:19;16.70;;;9.83;;
17032;SDS011;63208;52.178;21.016;2022-09-29T06:00:47;15.70;;;9.73;;
17032;SDS011;63208;52.178;21.016;2022-09-29T06:03:14;12.40;;;8.90;;
17032;SDS011;63208;52.178;21.016;2022-09-29T06:05:41;15.20;;;9.80;;
17032;SDS011;63208;52.178;21.016;2022-09-29T06:08:07;15.07;;;9.80;;
17032;SDS011;63208;52.178;21.016;2022-09-29T06:10:35;17.40;;;10.60;;
17032;SDS011;63208;52.178;21.016;2022-09-29T06:13:02;14.80;;;10.03;;
17032;SDS011;63208;52.178;21.016;2022-09-29T06:15:30;13.87;;;10.23;;
17032;SDS011;63208;52.178;21.016;2022-09-29T06:17:57;14.80;;;9.80;;
17032;SDS011;63208;52.178;21.016;2022-09-29T06:20:25;16.13;;;10.80;;
17032;SDS011;63208;52.178;21.016;2022-09-29T06:22:53;15.90;;;9.63;;
17032;SDS011;63208;52.178;21.016;2022-09-29T06:25:20;13.90;;;10.10;;
17032;SDS011;63208;52.178;21.016;2022-09-29T06:27:47;16.53;;;10.67;;
17032;SDS011;63208;52.178;21.016;2022-09-29T06:30:14;15.20;;;10.30;;
17032;SDS011;63208;52.178;21.016;2022-09-29T06:32:43;16.77;;;11.27;;
17032;SDS011;63208;52.178;21.016;2022-09-29T06:35:10;15.13;;;10.30;;
17032;SDS011;63208;52.178;21.016;2022-09-29T06:37:56;14.83;;;10.10;;
17032;SDS011;63208;52.178;21.016;2022-09-29T06:40:23;14.50;;;10.33;;
17032;SDS011;63208;52.178;21.016;2022-09-29T06:42:52;16.87;;;10.67;;
17032;SDS011;63208;52.178;21.016;2022-09-29T06:45:19;16.17;;;10.47;;
17032;SDS011;63208;52.178;21.016;2022-09-29T06:47:47;16.03;;;9.87;;
17032;SDS011;63208;52.178;21.016;2022-09-29T06:50:14;15.67;;;9.90;;
17032;SDS011;63208;52.178;21.016;2022-09-29T06:52:41;14.17;;;9.73;;
17032;SDS011;63208;52.178;21.016;2022-09-29T06:55:08;16.97;;;10.63;;
17032;SDS011;63208;52.178;21.016;2022-09-29T06:57:35;16.90;;;12.47;;
17032;SDS011;63208;52.178;21.016;2022-09-29T07:00:05;15.97;;;10.30;;
17032;SDS011;63208;52.178;21.016;2022-09-29T07:02:33;13.43;;;9.67;;
17032;SDS011;63208;52.178;21.016;2022-09-29T07:05:01;13.67;;;9.63;;
17032;SDS011;63208;52.178;21.016;2022-09-29T07:07:28;12.97;;;9.53;;
17032;SDS011;63208;52.178;21.016;2022-09-29T07:09:55;10.83;;;7.43;;
17032;SDS011;63208;52.178;21.016;2022-09-29T07:12:22;11.03;;;8.80;;
17032;SDS011;63208;52.178;21.016;2022-09-29T07:14:50;12.67;;;8.87;;
17032;SDS011;63208;52.178;21.016;2022-09-29T07:17:17;16.80;;;10.53;;
17032;SDS011;63208;52.178;21.016;2022-09-29T07:19:44;12.33;;;8.57;;
17032;SDS011;63208;52.178;21.016;2022-09-29T07:22:12;13.70;;;8.70;;
17032;SDS011;63208;52.178;21.016;2022-09-29T07:24:39;14.03;;;9.40;;
17032;SDS011;63208;52.178;21.016;2022-09-29T07:27:07;11.00;;;7.87;;
17032;SDS011;63208;52.178;21.016;2022-09-29T07:29:34;13.10;;;9.07;;
17032;SDS011;63208;52.178;21.016;2022-09-29T07:32:01;11.57;;;8.37;;
17032;SDS011;63208;52.178;21.016;2022-09-29T07:34:28;12.60;;;9.43;;
17032;SDS011;63208;52.178;21.016;2022-09-29T07:36:55;13.30;;;9.47;;
17032;SDS011;63208;52.178;21.016;2022-09-29T07:39:23;13.37;;;9.67;;
17032;SDS011;63208;52.178;21.016;2022-09-29T07:41:50;13.77;;;9.07;;
17032;SDS011;63208;52.178;21.016;2022-09-29T07:44:19;14.77;;;9.83;;
17032;SDS011;63208;52.178;21.016;2022-09-29T07:46:47;11.80;;;8.47;;
17032;SDS011;63208;52.178;21.016;2022-09-29T07:49:14;11.97;;;8.53;;
17032;SDS011;63208;52.178;21.016;2022-09-29T07:51:41;12.10;;;8.90;;
17032;SDS011;63208;52.178;21.016;2022-09-29T07:54:08;12.50;;;9.20;;
17032;SDS011;63208;52.178;21.016;2022-09-29T07:56:36;12.13;;;8.73;;
17032;SDS011;63208;52.178;21.016;2022-09-29T07:59:03;12.90;;;9.53;;
17032;SDS011;63208;52.178;21.016;2022-09-29T08:01:30;14.03;;;9.43;;
17032;SDS011;63208;52.178;21.016;2022-09-29T08:03:58;14.10;;;9.73;;
17032;SDS011;63208;52.178;21.016;2022-09-29T08:06:26;10.77;;;8.43;;
17032;SDS011;63208;52.178;21.016;2022-09-29T08:08:53;13.37;;;9.50;;
17032;SDS011;63208;52.178;21.016;2022-09-29T08:11:21;10.70;;;8.73;;
17032;SDS011;63208;52.178;21.016;2022-09-29T08:13:50;11.43;;;8.77;;
17032;SDS011;63208;52.178;21.016;2022-09-29T08:16:18;12.20;;;9.17;;
17032;SDS011;63208;52.178;21.016;2022-09-29T08:18:45;10.60;;;8.43;;
17032;SDS011;63208;52.178;21.016;2022-09-29T08:21:12;12.73;;;9.20;;
17032;SDS011;63208;52.178;21.016;2022-09-29T08:23:40;12.50;;;8.93;;
17032;SDS011;63208;52.178;21.016;2022-09-29T08:26:09;13.97;;;11.30;;
17032;SDS011;63208;52.178;21.016;2022-09-29T08:28:38;11.13;;;8.33;;
17032;SDS011;63208;52.178;21.016;2022-09-29T08:31:07;13.13;;;8.90;;
17032;SDS011;63208;52.178;21.016;2022-09-29T08:33:35;11.37;;;8.77;;
17032;SDS011;63208;52.178;21.016;2022-09-29T08:36:03;11.27;;;8.67;;
17032;SDS011;63208;52.178;21.016;2022-09-29T08:38:38;19.00;;;15.13;;
17032;SDS011;63208;52.178;21.016;2022-09-29T08:41:09;10.40;;;8.80;;
17032;SDS011;63208;52.178;21.016;2022-09-29T08:43:58;11.73;;;8.30;;
17032;SDS011;63208;52.178;21.016;2022-09-29T08:46:30;11.03;;;8.50;;
17032;SDS011;63208;52.178;21.016;2022-09-29T08:49:05;10.90;;;8.43;;
17032;SDS011;63208;52.178;21.016;2022-09-29T08:51:38;11.07;;;8.80;;
17032;SDS011;63208;52.178;21.016;2022-09-29T08:54:13;11.53;;;8.90;;
17032;SDS011;63208;52.178;21.016;2022-09-29T08:56:47;12.40;;;8.97;;
17032;SDS011;63208;52.178;21.016;2022-09-29T08:59:14;11.03;;;8.77;;
17032;SDS011;63208;52.178;21.016;2022-09-29T09:01:45;10.03;;;8.27;;
17032;SDS011;63208;52.178;21.016;2022-09-29T09:04:31;10.73;;;8.70;;
17032;SDS011;63208;52.178;21.016;2022-09-29T09:07:13;10.10;;;8.20;;
17032;SDS011;63208;52.178;21.016;2022-09-29T09:09:48;9.97;;;7.80;;
17032;SDS011;63208;52.178;21.016;2022-09-29T09:12:25;9.67;;;7.97;;
17032;SDS011;63208;52.178;21.016;2022-09-29T09:15:22;10.27;;;8.10;;
17032;SDS011;63208;52.178;21.016;2022-09-29T09:18:14;9.47;;;7.57;;
17032;SDS011;63208;52.178;21.016;2022-09-29T09:20:52;8.40;;;7.27;;
17032;SDS011;63208;52.178;21.016;2022-09-29T09:23:27;10.47;;;8.60;;
17032;SDS011;63208;52.178;21.016;2022-09-29T09:26:02;11.07;;;9.50;;
17032;SDS011;63208;52.178;21.016;2022-09-29T09:28:30;10.20;;;8.30;;
17032;SDS011;63208;52.178;21.016;2022-09-29T09:31:00;9.00;;;7.50;;
17032;SDS011;63208;52.178;21.016;2022-09-29T09:33:33;9.33;;;7.80;;
17032;SDS011;63208;52.178;21.016;2022-09-29T09:36:07;9.40;;;7.33;;
17032;SDS011;63208;52.178;21.016;2022-09-29T09:38:40;8.60;;;7.70;;
17032;SDS011;63208;52.178;21.016;2022-09-29T09:41:13;9.30;;;7.63;;
17032;SDS011;63208;52.178;21.016;2022-09-29T09:43:42;10.00;;;7.93;;
17032;SDS011;63208;52.178;21.016;2022-09-29T09:46:14;8.50;;;7.50;;
17032;SDS011;63208;52.178;21.016;2022-09-29T09:48:48;9.57;;;7.60;;
17032;SDS011;63208;52.178;21.016;2022-09-29T09:51:39;8.20;;;6.90;;
17032;SDS011;63208;52.178;21.016;2022-09-29T09:54:13;9.17;;;7.90;;
17032;SDS011;63208;52.178;21.016;2022-09-29T09:56:53;9.73;;;7.63;;
17032;SDS011;63208;52.178;21.016;2022-09-29T09:59:32;9.57;;;8.17;;
17032;SDS011;63208;52.178;21.016;2022-09-29T10:02:10;9.93;;;8.10;;
17032;SDS011;63208;52.178;21.016;2022-09-29T10:04:45;9.10;;;7.43;;
17032;SDS011;63208;52.178;21.016;2022-09-29T10:07:16;9.17;;;7.33;;
17032;SDS011;63208;52.178;21.016;2022-09-29T10:09:44;9.13;;;7.30;;
17032;SDS011;63208;52.178;21.016;2022-09-29T10:12:13;7.63;;;6.73;;
17032;SDS011;63208;52.178;21.016;2022-09-29T10:14:44;9.43;;;6.83;;
17032;SDS011;63208;52.178;21.016;2022-09-29T10:17:16;10.47;;;7.90;;
17032;SDS011;63208;52.178;21.016;2022-09-29T10:19:58;8.60;;;7.50;;
17032;SDS011;63208;52.178;21.016;2022-09-29T10:22:27;8.80;;;7.87;;
17032;SDS011;63208;52.178;21.016;2022-09-29T10:25:04;10.00;;;7.37;;
17032;SDS011;63208;52.178;21.016;2022-09-29T10:27:33;8.87;;;6.93;;
17032;SDS011;63208;52.178;21.016;2022-09-29T10:30:01;8.53;;;7.40;;
17032;SDS011;63208;52.178;21.016;2022-09-29T10:32:29;9.83;;;7.03;;
17032;SDS011;63208;52.178;21.016;2022-09-29T10:35:07;9.93;;;7.70;;
17032;SDS011;63208;52.178;21.016;2022-09-29T10:37:45;8.03;;;7.23;;
17032;SDS011;63208;52.178;21.016;2022-09-29T10:40:15;8.53;;;7.60;;
17032;SDS011;63208;52.178;21.016;2022-09-29T10:42:45;7.53;;;6.77;;
17032;SDS011;63208;52.178;21.016;2022-09-29T10:45:16;7.90;;;6.93;;
17032;SDS011;63208;52.178;21.016;2022-09-29T10:47:45;8.57;;;7.43;;
17032;SDS011;63208;52.178;21.016;2022-09-29T10:50:16;8.57;;;7.67;;
17032;SDS011;63208;52.178;21.016;2022-09-29T10:52:47;8.30;;;7.17;;
17032;SDS011;63208;52.178;21.016;2022-09-29T10:55:18;8.20;;;7.30;;
17032;SDS011;63208;52.178;21.016;2022-09-29T10:57:46;8.77;;;7.80;;
17032;SDS011;63208;52.178;21.016;2022-09-29T11:00:24;9.83;;;7.57;;
17032;SDS011;63208;52.178;21.016;2022-09-29T11:02:52;9.27;;;7.93;;
17032;SDS011;63208;52.178;21.016;2022-09-29T11:05:26;9.90;;;8.43;;
17032;SDS011;63208;52.178;21.016;2022-09-29T11:07:53;10.13;;;8.00;;
17032;SDS011;63208;52.178;21.016;2022-09-29T11:10:28;8.27;;;7.33;;
17032;SDS011;63208;52.178;21.016;2022-09-29T11:12:56;9.70;;;8.67;;
17032;SDS011;63208;52.178;21.016;2022-09-29T11:15:26;9.13;;;8.23;;
17032;SDS011;63208;52.178;21.016;2022-09-29T11:17:54;9.97;;;8.57;;
17032;SDS011;63208;52.178;21.016;2022-09-29T11:20:24;9.47;;;8.07;;
17032;SDS011;63208;52.178;21.016;2022-09-29T11:23:08;10.63;;;8.60;;
17032;SDS011;63208;52.178;21.016;2022-09-29T11:25:56;11.83;;;9.50;;
17032;SDS011;63208;52.178;21.016;2022-09-29T11:28:50;11.23;;;9.17;;
17032;SDS011;63208;52.178;21.016;2022-09-29T11:34:21;11.60;;;9.47;;
17032;SDS011;63208;52.178;21.016;2022-09-29T11:37:13;12.37;;;10.47;;
17032;SDS011;63208;52.178;21.016;2022-09-29T11:39:49;11.13;;;9.47;;
17032;SDS011;63208;52.178;21.016;2022-09-29T11:42:27;11.03;;;9.00;;
17032;SDS011;63208;52.178;21.016;2022-09-29T11:45:07;10.73;;;9.63;;
17032;SDS011;63208;52.178;21.016;2022-09-29T11:47:44;11.13;;;9.27;;
17032;SDS011;63208;52.178;21.016;2022-09-29T11:50:31;10.43;;;9.20;;
17032;SDS011;63208;52.178;21.016;2022-09-29T11:53:11;11.13;;;9.40;;
17032;SDS011;63208;52.178;21.016;2022-09-29T11:56:02;10.33;;;8.93;;
17032;SDS011;63208;52.178;21.016;2022-09-29T11:58:46;10.17;;;9.20;;
17032;SDS011;63208;52.178;21.016;2022-09-29T12:01:25;9.70;;;8.70;;
17032;SDS011;63208;52.178;21.016;2022-09-29T12:04:08;9.57;;;8.57;;
17032;SDS011;63208;52.178;21.016;2022-09-29T12:06:51;9.73;;;8.70;;
17032;SDS011;63208;52.178;21.016;2022-09-29T12:09:34;9.93;;;8.93;;
17032;SDS011;63208;52.178;21.016;2022-09-29T12:12:11;10.03;;;8.53;;
17032;SDS011;63208;52.178;21.016;2022-09-29T12:14:52;9.63;;;8.40;;
17032;SDS011;63208;52.178;21.016;2022-09-29T12:17:30;12.20;;;9.60;;
17032;SDS011;63208;52.178;21.016;2022-09-29T12:20:01;9.43;;;8.47;;
17032;SDS011;63208;52.178;21.016;2022-09-29T12:22:31;9.50;;;8.37;;
17032;SDS011;63208;52.178;21.016;2022-09-29T12:25:00;9.90;;;8.90;;
17032;SDS011;63208;52.178;21.016;2022-09-29T12:27:31;11.57;;;8.57;;
17032;SDS011;63208;52.178;21.016;2022-09-29T12:30:01;9.77;;;8.77;;
17032;SDS011;63208;52.178;21.016;2022-09-29T12:32:32;10.67;;;9.20;;
17032;SDS011;63208;52.178;21.016;2022-09-29T12:35:03;10.00;;;8.97;;
17032;SDS011;63208;52.178;21.016;2022-09-29T12:37:38;10.90;;;8.83;;
17032;SDS011;63208;52.178;21.016;2022-09-29T12:40:15;11.83;;;8.37;;
17032;SDS011;63208;52.178;21.016;2022-09-29T12:42:55;8.97;;;8.03;;
17032;SDS011;63208;52.178;21.016;2022-09-29T12:45:30;9.70;;;8.60;;
17032;SDS011;63208;52.178;21.016;2022-09-29T12:48:05;10.07;;;8.93;;
17032;SDS011;63208;52.178;21.016;2022-09-29T12:50:43;9.63;;;8.73;;
17032;SDS011;63208;52.178;21.016;2022-09-29T12:53:16;12.13;;;10.00;;
17032;SDS011;63208;52.178;21.016;2022-09-29T12:55:49;31.27;;;25.67;;
17032;SDS011;63208;52.178;21.016;2022-09-29T12:58:24;10.57;;;9.43;;
17032;SDS011;63208;52.178;21.016;2022-09-29T13:01:00;10.53;;;9.40;;
17032;SDS011;63208;52.178;21.016;2022-09-29T13:03:38;10.80;;;9.20;;
17032;SDS011;63208;52.178;21.016;2022-09-29T13:06:34;12.90;;;9.53;;
17032;SDS011;63208;52.178;21.016;2022-09-29T13:09:38;10.47;;;9.37;;
17032;SDS011;63208;52.178;21.016;2022-09-29T13:12:23;13.20;;;9.67;;
17032;SDS011;63208;52.178;21.016;2022-09-29T13:15:12;15.67;;;9.43;;
17032;SDS011;63208;52.178;21.016;2022-09-29T13:17:57;10.73;;;9.10;;
17032;SDS011;63208;52.178;21.016;2022-09-29T13:20:42;12.00;;;9.17;;
17032;SDS011;63208;52.178;21.016;2022-09-29T13:23:28;10.07;;;8.97;;
17032;SDS011;63208;52.178;21.016;2022-09-29T13:26:17;10.60;;;9.37;;
17032;SDS011;63208;52.178;21.016;2022-09-29T13:28:57;11.67;;;9.17;;
17032;SDS011;63208;52.178;21.016;2022-09-29T13:31:27;12.47;;;9.50;;
17032;SDS011;63208;52.178;21.016;2022-09-29T13:33:57;9.97;;;8.37;;
17032;SDS011;63208;52.178;21.016;2022-09-29T13:36:28;9.73;;;8.73;;
17032;SDS011;63208;52.178;21.016;2022-09-29T13:38:59;9.50;;;8.50;;
17032;SDS011;63208;52.178;21.016;2022-09-29T13:41:33;10.03;;;8.10;;
17032;SDS011;63208;52.178;21.016;2022-09-29T13:44:05;9.07;;;8.17;;
17032;SDS011;63208;52.178;21.016;2022-09-29T13:46:49;9.83;;;8.40;;
17032;SDS011;63208;52.178;21.016;2022-09-29T13:49:24;9.00;;;8.10;;
17032;SDS011;63208;52.178;21.016;2022-09-29T13:51:54;8.80;;;7.90;;
17032;SDS011;63208;52.178;21.016;2022-09-29T13:54:26;14.50;;;13.00;;
17032;SDS011;63208;52.178;21.016;2022-09-29T13:57:04;8.97;;;8.07;;
17032;SDS011;63208;52.178;21.016;2022-09-29T14:03:00;9.10;;;8.17;;
17032;SDS011;63208;52.178;21.016;2022-09-29T14:05:51;8.83;;;7.90;;
17032;SDS011;63208;52.178;21.016;2022-09-29T14:08:27;7.70;;;6.97;;
17032;SDS011;63208;52.178;21.016;2022-09-29T14:11:02;8.50;;;7.67;;
17032;SDS011;63208;52.178;21.016;2022-09-29T14:13:39;11.43;;;7.93;;
17032;SDS011;63208;52.178;21.016;2022-09-29T14:16:19;8.40;;;7.60;;
17032;SDS011;63208;52.178;21.016;2022-09-29T14:18:59;8.73;;;7.93;;
17032;SDS011;63208;52.178;21.016;2022-09-29T14:30:13;9.00;;;8.10;;
17032;SDS011;63208;52.178;21.016;2022-09-29T14:32:47;9.43;;;8.53;;
17032;SDS011;63208;52.178;21.016;2022-09-29T14:35:20;11.87;;;9.40;;
17032;SDS011;63208;52.178;21.016;2022-09-29T14:37:56;9.33;;;8.20;;
17032;SDS011;63208;52.178;21.016;2022-09-29T14:40:29;9.50;;;8.50;;
17032;SDS011;63208;52.178;21.016;2022-09-29T14:43:04;11.20;;;9.27;;
17032;SDS011;63208;52.178;21.016;2022-09-29T14:45:55;9.67;;;8.77;;
17032;SDS011;63208;52.178;21.016;2022-09-29T14:49:12;10.23;;;8.57;;
17032;SDS011;63208;52.178;21.016;2022-09-29T14:52:21;9.90;;;8.90;;
17032;SDS011;63208;52.178;21.016;2022-09-29T14:55:00;16.70;;;10.67;;
17032;SDS011;63208;52.178;21.016;2022-09-29T14:57:43;9.73;;;8.83;;
17032;SDS011;63208;52.178;21.016;2022-09-29T15:00:21;10.70;;;9.60;;
17032;SDS011;63208;52.178;21.016;2022-09-29T15:02:52;11.10;;;9.93;;
17032;SDS011;63208;52.178;21.016;2022-09-29T15:05:27;12.60;;;9.87;;
17032;SDS011;63208;52.178;21.016;2022-09-29T15:07:56;10.57;;;9.47;;
17032;SDS011;63208;52.178;21.016;2022-09-29T15:10:25;14.10;;;9.33;;